메인 페이지
METAR-TAF:

METAR-TAF

공항 :

로스앤젤레스 국제공항

로스앤젤레스, 캘리포니아, 미국

위도: 33-56-17N, 경도: 118-23-20W, 고도: 38m

현재 날씨관측

예보는 39분 전, 02:53시(UTC)에 발표되었습니다.
8kt
온도 14°C
습도 82%
기압 1015 hPa
시정: 16.1km
고도 1400ft 상공 구름 조금
고도 4600ft 상공 구름 많음

METAR: KLAX 210253Z 26008KT 10SM FEW014 BKN046 14/11 A2998 RMK AO2 SLP151 T01440111 53000

시각: 20:32 (03:32 UTC)

예보

예보는 31분 전, 03:01시(UTC)에 발표되었습니다.
예보 대상 시간: 21일 03시부터 22일 06시까지 (UTC)
8kt
시정: 10km
고도 3500ft 상공 구름 많음
21일 1000시부터 (UTC)
동남동6kt
시정: 10km
고도 2000ft 상공 구름 많음
21일 1900시부터 (UTC)
서남서12kt
시정: 10km
고도 2500ft 상공 구름 보통
22일 0400시부터 (UTC)
서남서6kt
시정: 10km
고도 2500ft 상공 구름 보통

TAF: KLAX 210301Z 2103/2206 26008KT P6SM BKN035 FM211000 12006KT P6SM BKN020 FM211900 25012KT P6SM SCT025 FM220400 25006KT P6SM SCT025

4,000개 이상의 공항 관측 자료 및 예보 (METAR 및 TAF 보고).

지도상에서 검색 가능한 기상관측소가 노란 점과 빨간 점으로 표시되어 있습니다.

기상관측소 명을 보려면 표시 위로 마우스를 이동하세요.

날씨 관측과 예보를 보려면 클릭하세요.

지도 변경 : 확대하려면 엑스 표시가 있는 녹색 버튼, 축소하려면 빼기 표시가 있는 녹색 버튼, 다음 페이지의 지도를 보려면 녹색 화살표를 클릭하세요.


METAR-TAF: